createdAt,value
2022-08-09T00:00:57.228Z,48.93
2022-08-09T00:04:03.532Z,48.22
2022-08-09T00:06:19.039Z,48.07
2022-08-09T00:08:51.872Z,48.14
2022-08-09T00:11:24.775Z,48.76
2022-08-09T00:13:55.709Z,48.99
2022-08-09T00:16:26.197Z,49.43
2022-08-09T00:19:09.392Z,49.50
2022-08-09T00:21:38.640Z,49.42
2022-08-09T00:24:27.293Z,49.98
2022-08-09T00:26:55.937Z,49.43
2022-08-09T00:29:39.570Z,49.70
2022-08-09T00:32:13.031Z,50.54
2022-08-09T00:34:53.048Z,50.91
2022-08-09T00:37:20.352Z,50.72
2022-08-09T00:40:13.730Z,51.26
2022-08-09T00:44:14.882Z,52.05
2022-08-09T00:45:22.250Z,52.08
2022-08-09T00:47:49.735Z,52.06
2022-08-09T00:50:17.249Z,52.39
2022-08-09T00:52:44.652Z,51.97
2022-08-09T00:55:32.604Z,52.13
2022-08-09T00:58:00.265Z,51.71
2022-08-09T01:00:28.271Z,51.58
2022-08-09T01:03:20.050Z,52.36
2022-08-09T01:05:57.411Z,51.58
2022-08-09T01:08:49.492Z,52.30
2022-08-09T01:11:38.945Z,53.05
2022-08-09T01:14:11.780Z,53.92
2022-08-09T01:16:47.203Z,53.92
2022-08-09T01:19:42.864Z,53.60
2022-08-09T01:22:38.105Z,53.42
2022-08-09T01:25:19.053Z,53.30
2022-08-09T01:27:51.284Z,54.68
2022-08-09T01:30:33.732Z,54.56
2022-08-09T01:33:04.505Z,54.69
2022-08-09T01:36:00.157Z,55.53
2022-08-09T01:38:30.148Z,55.01
2022-08-09T01:41:09.393Z,56.18
2022-08-09T01:43:41.985Z,55.97
2022-08-09T01:46:25.013Z,56.19
2022-08-09T01:49:00.319Z,56.45
2022-08-09T01:51:53.515Z,56.63
2022-08-09T01:54:25.052Z,56.49
2022-08-09T01:56:52.781Z,56.25
2022-08-09T01:59:21.544Z,56.82
2022-08-09T02:01:59.872Z,57.27
2022-08-09T02:04:30.197Z,57.29
2022-08-09T02:07:18.286Z,57.24
2022-08-09T02:10:04.103Z,57.24
2022-08-09T02:12:35.008Z,56.59
2022-08-09T02:15:06.232Z,56.95
2022-08-09T02:18:09.992Z,57.64
2022-08-09T02:20:32.604Z,57.02
2022-08-09T02:23:07.154Z,56.97
2022-08-09T02:25:42.174Z,57.10
2022-08-09T02:28:17.929Z,57.45
2022-08-09T02:30:51.883Z,57.06
2022-08-09T02:33:22.964Z,57.75
2022-08-09T02:36:02.633Z,57.29
2022-08-09T02:38:34.768Z,57.62
2022-08-09T02:41:10.854Z,57.31
2022-08-09T02:43:53.936Z,57.78
2022-08-09T02:46:28.468Z,58.72
2022-08-09T02:48:59.543Z,58.95
2022-08-09T02:51:28.102Z,59.06
2022-08-09T02:54:05.372Z,59.50
2022-08-09T02:56:34.132Z,58.99
2022-08-09T02:59:05.268Z,59.03
2022-08-09T03:01:58.598Z,57.96
2022-08-09T03:04:26.282Z,58.67
2022-08-09T03:06:57.263Z,59.22
2022-08-09T03:09:27.059Z,58.73
2022-08-09T03:12:06.011Z,59.03
2022-08-09T03:14:36.741Z,59.67
2022-08-09T03:17:05.478Z,58.96
2022-08-09T03:19:58.593Z,58.38
2022-08-09T03:22:25.665Z,59.13
2022-08-09T03:25:06.002Z,59.51
2022-08-09T03:27:52.346Z,58.76
2022-08-09T03:30:29.268Z,59.66
2022-08-09T03:33:05.523Z,60.73
2022-08-09T03:36:13.569Z,60.37
2022-08-09T03:38:28.857Z,60.24
2022-08-09T03:40:58.273Z,60.63
2022-08-09T03:43:31.633Z,60.00
2022-08-09T03:46:20.666Z,60.15
2022-08-09T03:48:57.609Z,59.82
2022-08-09T03:51:56.962Z,60.03
2022-08-09T03:54:14.749Z,59.72
2022-08-09T03:56:42.856Z,60.11
2022-08-09T03:59:20.821Z,60.60
2022-08-09T04:01:50.488Z,61.01
2022-08-09T04:04:18.381Z,61.25
2022-08-09T04:06:49.028Z,61.37
2022-08-09T04:09:41.637Z,60.97
2022-08-09T04:12:11.773Z,61.46
2022-08-09T04:15:00.188Z,60.75
2022-08-09T04:17:29.572Z,61.50
2022-08-09T04:19:57.063Z,61.35
2022-08-09T04:22:24.497Z,61.73
2022-08-09T04:24:55.279Z,61.95
2022-08-09T04:27:23.809Z,62.51
2022-08-09T04:29:51.260Z,62.40
2022-08-09T04:32:31.468Z,62.13
2022-08-09T04:35:01.518Z,61.98
2022-08-09T04:37:45.901Z,62.31
2022-08-09T04:40:19.708Z,62.04
2022-08-09T04:43:01.822Z,61.81
2022-08-09T04:45:35.782Z,62.30
2022-08-09T04:48:12.590Z,62.16
2022-08-09T04:50:40.433Z,62.73
2022-08-09T04:53:11.489Z,62.59
2022-08-09T04:55:42.067Z,63.35
2022-08-09T04:58:31.711Z,62.32
2022-08-09T05:01:01.319Z,62.73
2022-08-09T05:03:40.034Z,62.32
2022-08-09T05:06:26.803Z,62.98
2022-08-09T05:09:00.614Z,63.57
2022-08-09T05:11:30.686Z,63.22
2022-08-09T05:14:06.036Z,63.22
2022-08-09T05:16:58.367Z,62.65
2022-08-09T05:19:25.838Z,62.75
2022-08-09T05:21:55.190Z,62.78
2022-08-09T05:24:26.258Z,62.69
2022-08-09T05:26:53.400Z,63.76
2022-08-09T05:29:23.838Z,63.19
2022-08-09T05:31:57.013Z,62.94
2022-08-09T05:34:31.100Z,63.73
2022-08-09T05:37:04.876Z,63.69
2022-08-09T05:39:43.716Z,63.58
2022-08-09T05:42:20.671Z,63.41
2022-08-09T05:44:51.286Z,63.93
2022-08-09T05:47:19.842Z,64.13
2022-08-09T05:50:26.883Z,63.89
2022-08-09T05:52:43.605Z,63.76
2022-08-09T05:55:21.641Z,63.65
2022-08-09T05:57:56.387Z,63.18
2022-08-09T06:00:27.002Z,62.75
2022-08-09T06:03:01.923Z,62.88
2022-08-09T06:05:57.100Z,63.07
2022-08-09T06:08:19.805Z,63.20
2022-08-09T06:10:53.829Z,63.08
2022-08-09T06:13:22.057Z,62.92
2022-08-09T06:15:51.361Z,62.27
2022-08-09T06:18:24.808Z,62.87
2022-08-09T06:20:57.659Z,62.73
2022-08-09T06:23:57.581Z,62.71
2022-08-09T06:26:20.893Z,62.73
2022-08-09T06:28:59.513Z,62.19
2022-08-09T06:31:31.373Z,62.90
2022-08-09T06:34:07.342Z,62.97
2022-08-09T06:36:34.770Z,62.93
2022-08-09T06:39:02.721Z,61.89
2022-08-09T06:42:08.143Z,61.82
2022-08-09T06:44:26.507Z,62.71
2022-08-09T06:46:55.259Z,62.51
2022-08-09T06:49:44.461Z,61.84
2022-08-09T06:52:12.000Z,61.95
2022-08-09T06:54:41.644Z,61.89
2022-08-09T06:57:09.453Z,62.21
2022-08-09T07:00:48.643Z,61.89
2022-08-09T07:02:30.751Z,62.31
2022-08-09T07:04:58.686Z,62.09
2022-08-09T07:08:00.807Z,61.24
2022-08-09T07:10:29.673Z,61.00
2022-08-09T07:12:59.389Z,59.34
2022-08-09T07:16:38.544Z,58.30
2022-08-09T07:18:15.027Z,59.06
2022-08-09T07:20:44.491Z,58.73
2022-08-09T07:23:19.133Z,58.14
2022-08-09T07:25:52.544Z,57.88
2022-08-09T07:28:31.088Z,57.32
2022-08-09T07:31:04.739Z,57.19
2022-08-09T07:33:52.874Z,57.71
2022-08-09T07:36:20.401Z,56.25
2022-08-09T07:38:58.167Z,56.03
2022-08-09T07:41:27.994Z,56.28
2022-08-09T07:44:00.585Z,55.47
2022-08-09T07:46:28.120Z,55.10
2022-08-09T07:48:59.638Z,54.78
2022-08-09T07:52:05.878Z,54.99
2022-08-09T07:54:15.577Z,54.24
2022-08-09T07:56:49.528Z,54.62
2022-08-09T07:59:25.226Z,53.62
2022-08-09T08:02:01.203Z,53.14
2022-08-09T08:04:31.856Z,52.57
2022-08-09T08:07:27.116Z,51.74
2022-08-09T08:09:54.915Z,51.97
2022-08-09T08:12:43.703Z,51.16
2022-08-09T08:15:17.458Z,51.49
2022-08-09T08:17:54.732Z,50.27
2022-08-09T08:20:28.931Z,49.88
2022-08-09T08:23:06.923Z,49.08
2022-08-09T08:25:49.883Z,49.02
2022-08-09T08:28:25.592Z,49.35
2022-08-09T08:31:14.395Z,49.30
2022-08-09T08:33:53.016Z,50.38
2022-08-09T08:36:29.797Z,49.88
2022-08-09T08:38:59.853Z,49.29
2022-08-09T08:41:41.728Z,49.40
2022-08-09T08:44:27.248Z,49.20
2022-08-09T08:47:02.406Z,48.65
2022-08-09T08:49:46.850Z,49.28
2022-08-09T08:52:57.387Z,48.61
2022-08-09T08:55:23.054Z,48.16
2022-08-09T08:57:56.466Z,47.57
2022-08-09T09:00:30.331Z,47.42
2022-08-09T09:03:11.999Z,48.25
2022-08-09T09:05:59.906Z,47.97
2022-08-09T09:08:38.050Z,47.77
2022-08-09T09:11:13.655Z,47.38
2022-08-09T09:13:56.526Z,47.05
2022-08-09T09:16:30.741Z,45.99
2022-08-09T09:22:04.261Z,45.91
2022-08-09T09:24:37.188Z,45.51
2022-08-09T09:27:06.906Z,45.61
2022-08-09T09:30:08.510Z,45.40
2022-08-09T09:32:32.345Z,44.63
2022-08-09T09:35:10.520Z,44.91
2022-08-09T09:37:41.015Z,44.63
2022-08-09T09:40:10.181Z,43.92
2022-08-09T09:42:39.368Z,43.65
2022-08-09T09:45:14.398Z,43.54
2022-08-09T09:47:58.723Z,43.34
2022-08-09T09:50:49.697Z,43.26
2022-08-09T09:53:34.416Z,43.09
2022-08-09T09:56:20.150Z,43.30
2022-08-09T09:58:58.964Z,42.90
2022-08-09T10:01:31.179Z,42.85
2022-08-09T10:04:16.093Z,43.16
2022-08-09T10:06:51.806Z,43.23
2022-08-09T10:09:23.867Z,43.23
2022-08-09T10:12:11.919Z,42.86
2022-08-09T10:14:47.894Z,42.71
2022-08-09T10:17:50.701Z,41.75
2022-08-09T10:20:27.409Z,41.33
2022-08-09T10:23:23.960Z,41.32
2022-08-09T10:26:07.626Z,41.72
2022-08-09T10:28:40.218Z,41.59
2022-08-09T10:32:27.434Z,41.47
2022-08-09T10:34:08.704Z,39.84
2022-08-09T10:36:39.893Z,40.17
2022-08-09T10:39:15.651Z,40.45
2022-08-09T10:41:48.006Z,40.03
2022-08-09T10:44:19.516Z,39.86
2022-08-09T10:47:04.120Z,39.79
2022-08-09T10:50:03.766Z,40.04
2022-08-09T10:53:00.132Z,39.32
2022-08-09T10:55:55.264Z,39.37
2022-08-09T10:58:37.639Z,39.10
2022-08-09T11:03:02.559Z,38.62
2022-08-09T11:04:20.063Z,38.12
2022-08-09T11:07:00.030Z,38.30
2022-08-09T11:09:41.286Z,38.32
2022-08-09T11:12:29.725Z,38.61
2022-08-09T11:15:24.289Z,38.51
2022-08-09T11:18:03.681Z,38.42
2022-08-09T11:20:42.227Z,38.06
2022-08-09T11:23:11.624Z,38.09
2022-08-09T11:25:47.544Z,37.44
2022-08-09T11:28:53.940Z,37.17
2022-08-09T11:31:49.466Z,36.11
2022-08-09T11:34:24.845Z,36.55
2022-08-09T11:36:53.077Z,36.41
2022-08-09T11:39:20.516Z,36.02
2022-08-09T11:41:48.878Z,35.57
2022-08-09T11:44:16.262Z,34.99
2022-08-09T11:47:00.362Z,35.04
2022-08-09T11:50:57.034Z,34.41
2022-08-09T11:53:15.940Z,34.54
2022-08-09T11:55:53.127Z,34.43
2022-08-09T11:58:32.313Z,33.85
2022-08-09T12:01:09.057Z,34.03
2022-08-09T12:03:57.447Z,34.30
2022-08-09T12:06:32.556Z,34.64
2022-08-09T12:09:19.555Z,34.37
2022-08-09T12:12:05.935Z,34.21
2022-08-09T12:15:07.526Z,33.81
2022-08-09T12:17:34.508Z,33.93
2022-08-09T12:20:16.787Z,33.62
2022-08-09T12:22:56.330Z,34.09
2022-08-09T12:25:36.668Z,34.04
2022-08-09T12:28:58.726Z,33.14
2022-08-09T12:31:02.902Z,32.57
2022-08-09T12:33:59.335Z,32.95
2022-08-09T12:36:32.217Z,32.32
2022-08-09T12:39:02.254Z,31.97
2022-08-09T12:41:39.044Z,32.18
2022-08-09T12:44:12.623Z,32.20
2022-08-09T12:46:48.972Z,31.38
2022-08-09T12:49:18.187Z,31.30
2022-08-09T12:52:01.637Z,31.08
2022-08-09T12:55:03.257Z,30.93
2022-08-09T12:57:40.179Z,31.14
2022-08-09T13:00:17.724Z,31.27
2022-08-09T13:03:00.386Z,31.38
2022-08-09T13:06:11.316Z,31.23
2022-08-09T13:08:39.850Z,31.23
2022-08-09T13:11:24.233Z,31.47
2022-08-09T13:14:41.898Z,31.15
2022-08-09T13:16:46.120Z,31.07
2022-08-09T13:20:10.010Z,30.38
2022-08-09T13:22:37.548Z,30.79
2022-08-09T13:25:14.330Z,31.12
2022-08-09T13:27:48.620Z,30.96
2022-08-09T13:30:48.997Z,30.86
2022-08-09T13:33:22.555Z,30.63
2022-08-09T13:36:38.708Z,30.50
2022-08-09T13:38:56.715Z,30.79
2022-08-09T13:41:55.912Z,30.45
2022-08-09T13:44:16.405Z,29.87
2022-08-09T13:47:26.576Z,29.86
2022-08-09T13:49:39.701Z,29.73
2022-08-09T13:52:20.878Z,28.70
2022-08-09T13:54:59.397Z,29.07
2022-08-09T13:57:36.289Z,30.45
2022-08-09T14:00:12.093Z,30.46
2022-08-09T14:02:42.596Z,30.11
2022-08-09T14:05:58.389Z,29.61
2022-08-09T14:08:17.645Z,29.08
2022-08-09T14:10:50.350Z,29.06
2022-08-09T14:14:14.681Z,28.60
2022-08-09T14:16:18.584Z,28.61
2022-08-09T14:18:50.229Z,29.06
2022-08-09T14:21:22.279Z,28.65
2022-08-09T14:23:56.641Z,28.68
2022-08-09T14:26:31.596Z,28.38
2022-08-09T14:29:02.661Z,28.72
2022-08-09T14:31:49.443Z,28.60
2022-08-09T14:34:30.991Z,28.20
2022-08-09T14:37:06.618Z,28.89
2022-08-09T14:39:47.316Z,28.61
2022-08-09T14:42:40.335Z,28.35
2022-08-09T14:46:39.805Z,28.00
2022-08-09T14:47:57.860Z,27.70
2022-08-09T14:50:34.689Z,27.10
2022-08-09T14:53:12.197Z,26.98
2022-08-09T14:55:42.393Z,26.67
2022-08-09T14:58:18.298Z,26.91
2022-08-09T15:00:48.372Z,27.26
2022-08-09T15:03:20.544Z,27.29
2022-08-09T15:05:52.334Z,27.15
2022-08-09T15:08:24.261Z,27.28
2022-08-09T15:11:01.222Z,27.32
2022-08-09T15:13:48.375Z,27.51
2022-08-09T15:16:17.102Z,27.99
2022-08-09T15:18:44.333Z,27.39
2022-08-09T15:21:56.203Z,27.21
2022-08-09T15:24:15.314Z,27.33
2022-08-09T15:26:46.751Z,27.29
2022-08-09T15:31:01.413Z,26.65
2022-08-09T15:32:02.143Z,26.87
2022-08-09T15:34:34.524Z,26.54
2022-08-09T15:37:23.622Z,27.25
2022-08-09T15:39:53.632Z,27.04
2022-08-09T15:42:23.147Z,27.33
2022-08-09T15:44:51.531Z,27.26
2022-08-09T15:47:22.918Z,27.81
2022-08-09T15:50:04.496Z,28.20
2022-08-09T15:52:34.771Z,28.35
2022-08-09T15:55:04.049Z,27.92
2022-08-09T15:57:35.233Z,27.50
2022-08-09T16:00:25.918Z,27.22
2022-08-09T16:02:56.087Z,27.15
2022-08-09T16:05:47.659Z,27.27
2022-08-09T16:08:30.405Z,28.00
2022-08-09T16:11:02.671Z,27.52
2022-08-09T16:14:04.156Z,27.80
2022-08-09T16:16:28.265Z,27.24
2022-08-09T16:18:56.222Z,27.51
2022-08-09T16:21:25.576Z,28.23
2022-08-09T16:23:58.276Z,28.34
2022-08-09T16:26:34.610Z,28.66
2022-08-09T16:29:11.055Z,28.15
2022-08-09T16:32:18.468Z,28.30
2022-08-09T16:34:54.568Z,28.11
2022-08-09T16:37:54.651Z,27.98
2022-08-09T16:40:12.163Z,27.32
2022-08-09T16:42:45.466Z,27.38
2022-08-09T16:45:19.842Z,27.49
2022-08-09T16:48:42.029Z,27.48
2022-08-09T16:50:38.421Z,27.40
2022-08-09T16:53:08.738Z,27.71
2022-08-09T16:56:01.530Z,27.57
2022-08-09T16:58:24.071Z,27.66
2022-08-09T17:00:51.445Z,27.01
2022-08-09T17:03:21.875Z,27.11
2022-08-09T17:06:07.111Z,27.14
2022-08-09T17:08:58.881Z,27.41
2022-08-09T17:11:39.998Z,27.90
2022-08-09T17:14:26.214Z,27.32
2022-08-09T17:16:59.976Z,27.61
2022-08-09T17:19:46.386Z,27.63
2022-08-09T17:22:24.990Z,27.63
2022-08-09T17:25:03.495Z,27.19
2022-08-09T17:27:33.906Z,27.73
2022-08-09T17:30:04.901Z,27.85
2022-08-09T17:32:38.007Z,27.33
2022-08-09T17:35:11.892Z,26.90
2022-08-09T17:38:02.643Z,27.06
2022-08-09T17:40:33.243Z,26.91
2022-08-09T17:43:33.154Z,26.72
2022-08-09T17:46:02.969Z,26.61
2022-08-09T17:48:39.003Z,26.78
2022-08-09T17:51:17.456Z,26.85
2022-08-09T17:53:52.815Z,26.93
2022-08-09T17:56:29.096Z,27.08
2022-08-09T17:59:03.399Z,26.67
2022-08-09T18:02:03.865Z,27.03
2022-08-09T18:04:26.482Z,26.66
2022-08-09T18:06:55.004Z,26.89
2022-08-09T18:09:40.560Z,27.40
2022-08-09T18:12:19.761Z,26.85
2022-08-09T18:14:54.531Z,27.13
2022-08-09T18:17:27.687Z,27.19
2022-08-09T18:20:55.678Z,26.95
2022-08-09T18:23:05.572Z,26.89
2022-08-09T18:25:50.783Z,26.73
2022-08-09T18:30:35.655Z,27.26
2022-08-09T18:31:10.680Z,27.10
2022-08-09T18:33:38.062Z,27.30
2022-08-09T18:36:14.189Z,27.51
2022-08-09T18:38:55.132Z,27.31
2022-08-09T18:41:27.958Z,27.68
2022-08-09T18:43:55.391Z,27.58
2022-08-09T18:46:51.425Z,27.86
2022-08-09T18:49:10.004Z,28.30
2022-08-09T18:51:38.723Z,28.53
2022-08-09T18:54:28.437Z,28.32
2022-08-09T18:56:57.270Z,28.80
2022-08-09T18:59:48.796Z,28.86
2022-08-09T19:02:18.106Z,29.15
2022-08-09T19:04:47.520Z,29.21
2022-08-09T19:07:16.682Z,29.64
2022-08-09T19:10:15.447Z,29.45
2022-08-09T19:12:36.943Z,29.67
2022-08-09T19:15:07.039Z,30.21
2022-08-09T19:17:47.578Z,30.39
2022-08-09T19:20:22.749Z,30.68
2022-08-09T19:22:50.485Z,30.61
2022-08-09T19:25:41.826Z,30.69
2022-08-09T19:28:13.321Z,30.94
2022-08-09T19:30:44.353Z,31.47
2022-08-09T19:33:19.537Z,31.39
2022-08-09T19:35:58.442Z,31.66
2022-08-09T19:38:27.539Z,31.72
2022-08-09T19:40:57.625Z,31.64
2022-08-09T19:43:57.884Z,32.01
2022-08-09T19:46:34.169Z,32.49
2022-08-09T19:50:08.754Z,33.32
2022-08-09T19:51:55.730Z,33.62
2022-08-09T19:54:29.763Z,34.04
2022-08-09T19:56:58.672Z,33.72
2022-08-09T19:59:39.992Z,33.83
2022-08-09T20:04:07.340Z,33.80
2022-08-09T20:05:11.782Z,34.02
2022-08-09T20:07:59.278Z,34.25
2022-08-09T20:10:34.663Z,33.91
2022-08-09T20:13:05.856Z,34.21
2022-08-09T20:19:54.849Z,34.69
2022-08-09T20:24:08.153Z,35.06
2022-08-09T20:30:27.862Z,35.51
2022-08-09T20:33:28.431Z,35.68
2022-08-09T20:36:31.293Z,35.65
2022-08-09T20:42:53.361Z,35.81
2022-08-09T20:46:33.797Z,36.31
2022-08-09T20:49:53.852Z,36.43
2022-08-09T21:00:22.820Z,36.59
2022-08-09T21:03:19.592Z,36.70
2022-08-09T21:06:06.620Z,36.86
2022-08-09T21:09:13.627Z,36.61
2022-08-09T21:16:04.879Z,37.05
2022-08-09T21:20:17.158Z,36.81
2022-08-09T21:22:52.583Z,37.55
2022-08-09T21:26:17.902Z,37.44
2022-08-09T21:29:16.783Z,37.72
2022-08-09T21:32:33.168Z,38.03
2022-08-09T21:35:51.140Z,38.13
2022-08-09T21:39:58.354Z,38.30
2022-08-09T21:46:06.080Z,37.60
2022-08-09T21:58:53.622Z,37.69
2022-08-09T22:02:00.697Z,38.20
2022-08-09T22:05:35.559Z,38.21
2022-08-09T22:09:27.256Z,38.37
2022-08-09T22:15:34.857Z,38.40
2022-08-09T22:18:54.390Z,38.69
2022-08-09T22:22:02.001Z,38.58
2022-08-09T22:24:53.522Z,38.44
2022-08-09T22:27:45.194Z,38.67
2022-08-09T22:34:14.551Z,39.21
2022-08-09T22:37:22.281Z,39.21
2022-08-09T22:48:05.001Z,39.66
2022-08-09T22:48:35.189Z,39.84
2022-08-09T22:54:27.210Z,40.10
2022-08-09T22:57:38.604Z,40.66
2022-08-09T23:00:32.166Z,40.53
2022-08-09T23:04:03.623Z,39.93
2022-08-09T23:08:21.797Z,40.39
2022-08-09T23:11:35.179Z,40.66
2022-08-09T23:14:37.246Z,40.68
2022-08-09T23:17:36.592Z,40.72
2022-08-09T23:20:36.974Z,40.85
2022-08-09T23:23:09.366Z,40.90
2022-08-09T23:25:59.970Z,40.98
2022-08-09T23:28:58.708Z,40.68
2022-08-09T23:31:57.954Z,40.79
2022-08-09T23:34:44.288Z,41.08
2022-08-09T23:40:45.873Z,41.46
2022-08-09T23:44:41.548Z,42.13
2022-08-09T23:47:32.539Z,41.96
2022-08-09T23:50:49.238Z,42.34
2022-08-09T23:54:17.441Z,41.92
2022-08-09T23:57:16.419Z,41.75
